createdAt,value
2023-04-24T00:00:08.347Z,16.99
2023-04-24T00:02:34.614Z,16.99
2023-04-24T00:05:00.872Z,16.99
2023-04-24T00:07:26.989Z,16.98
2023-04-24T00:09:53.114Z,16.98
2023-04-24T00:12:19.225Z,16.98
2023-04-24T00:14:45.317Z,16.98
2023-04-24T00:17:11.432Z,16.98
2023-04-24T00:19:37.539Z,16.98
2023-04-24T00:22:03.680Z,16.98
2023-04-24T00:24:29.796Z,16.98
2023-04-24T00:26:55.888Z,16.97
2023-04-24T00:29:21.996Z,16.97
2023-04-24T00:31:48.112Z,16.98
2023-04-24T00:34:14.227Z,16.98
2023-04-24T00:36:40.336Z,16.98
2023-04-24T00:39:06.481Z,16.98
2023-04-24T00:41:32.579Z,16.97
2023-04-24T00:43:58.708Z,16.96
2023-04-24T00:46:24.839Z,16.97
2023-04-24T00:48:50.961Z,16.97
2023-04-24T00:51:17.070Z,16.96
2023-04-24T00:53:43.234Z,16.97
2023-04-24T00:56:09.331Z,16.96
2023-04-24T00:58:35.429Z,16.96
2023-04-24T01:01:01.562Z,16.94
2023-04-24T01:03:27.812Z,16.95
2023-04-24T01:05:54.019Z,16.94
2023-04-24T01:08:20.139Z,16.94
2023-04-24T01:10:46.252Z,16.94
2023-04-24T01:13:12.444Z,16.94
2023-04-24T01:15:39.085Z,16.94
2023-04-24T01:18:05.185Z,16.93
2023-04-24T01:20:31.322Z,16.94
2023-04-24T01:22:57.435Z,16.93
2023-04-24T01:25:23.536Z,16.94
2023-04-24T01:27:49.643Z,16.93
2023-04-24T01:30:15.755Z,16.93
2023-04-24T01:32:41.876Z,16.93
2023-04-24T01:35:07.974Z,16.93
2023-04-24T01:37:34.114Z,16.92
2023-04-24T01:40:00.226Z,16.92
2023-04-24T01:42:26.319Z,16.93
2023-04-24T01:44:52.416Z,16.91
2023-04-24T01:47:18.521Z,16.92
2023-04-24T01:49:45.001Z,16.90
2023-04-24T01:52:11.386Z,16.90
2023-04-24T01:54:37.484Z,16.90
2023-04-24T01:57:03.585Z,16.90
2023-04-24T01:59:29.784Z,16.89
2023-04-24T02:01:55.916Z,16.87
2023-04-24T02:04:22.059Z,16.89
2023-04-24T02:06:48.247Z,16.89
2023-04-24T02:09:14.365Z,16.87
2023-04-24T02:11:40.465Z,16.88
2023-04-24T02:14:06.575Z,16.87
2023-04-24T02:16:32.671Z,16.87
2023-04-24T02:18:58.790Z,16.87
2023-04-24T02:21:25.302Z,16.86
2023-04-24T02:23:51.408Z,16.85
2023-04-24T02:26:17.514Z,16.86
2023-04-24T02:28:43.633Z,16.82
2023-04-24T02:31:09.722Z,16.81
2023-04-24T02:33:35.814Z,16.80
2023-04-24T02:36:01.926Z,16.80
2023-04-24T02:38:28.048Z,16.81
2023-04-24T02:40:54.145Z,16.81
2023-04-24T02:43:20.273Z,16.80
2023-04-24T02:45:46.436Z,16.81
2023-04-24T02:48:12.582Z,16.80
2023-04-24T02:50:38.686Z,16.79
2023-04-24T02:53:04.809Z,16.79
2023-04-24T02:55:30.901Z,16.80
2023-04-24T02:57:57.024Z,16.79
2023-04-24T03:00:23.117Z,16.78
2023-04-24T03:02:49.493Z,16.78
2023-04-24T03:05:15.696Z,16.79
2023-04-24T03:07:41.785Z,16.78
2023-04-24T03:10:07.902Z,16.78
2023-04-24T03:12:34.114Z,16.77
2023-04-24T03:15:00.224Z,16.76
2023-04-24T03:17:26.330Z,16.76
2023-04-24T03:19:52.450Z,16.75
2023-04-24T03:22:18.538Z,16.74
2023-04-24T03:24:44.644Z,16.76
2023-04-24T03:27:10.763Z,16.74
2023-04-24T03:29:36.880Z,16.73
2023-04-24T03:32:02.994Z,16.74
2023-04-24T03:34:29.168Z,16.74
2023-04-24T03:36:55.257Z,16.73
2023-04-24T03:39:21.369Z,16.72
2023-04-24T03:41:47.521Z,16.73
2023-04-24T03:44:13.626Z,16.72
2023-04-24T03:46:39.794Z,16.72
2023-04-24T03:49:05.928Z,16.72
2023-04-24T03:51:32.033Z,16.71
2023-04-24T03:53:58.159Z,16.72
2023-04-24T03:56:24.331Z,16.71
2023-04-24T03:58:50.439Z,16.70
2023-04-24T04:01:16.576Z,16.70
2023-04-24T04:03:42.899Z,16.69
2023-04-24T04:06:09.046Z,16.70
2023-04-24T04:08:35.126Z,16.69
2023-04-24T04:11:02.841Z,16.68
2023-04-24T04:13:30.092Z,16.68
2023-04-24T04:15:56.197Z,16.69
2023-04-24T04:18:22.339Z,16.67
2023-04-24T04:20:48.435Z,16.66
2023-04-24T04:23:14.533Z,16.65
2023-04-24T04:25:41.160Z,16.66
2023-04-24T04:28:07.264Z,16.67
2023-04-24T04:30:33.354Z,16.68
2023-04-24T04:32:59.476Z,16.65
2023-04-24T04:35:25.612Z,16.66
2023-04-24T04:37:51.720Z,16.67
2023-04-24T04:40:17.837Z,16.66
2023-04-24T04:42:43.922Z,16.66
2023-04-24T04:45:10.013Z,16.67
2023-04-24T04:47:36.165Z,16.67
2023-04-24T04:50:02.307Z,16.67
2023-04-24T04:52:28.419Z,16.66
2023-04-24T04:54:54.527Z,16.66
2023-04-24T04:57:20.631Z,16.66
2023-04-24T04:59:46.732Z,16.65
2023-04-24T05:02:12.950Z,16.65
2023-04-24T05:04:39.389Z,16.65
2023-04-24T05:07:05.607Z,16.64
2023-04-24T05:09:31.740Z,16.64
2023-04-24T05:11:57.840Z,16.64
2023-04-24T05:14:23.931Z,16.65
2023-04-24T05:16:50.550Z,16.64
2023-04-24T05:19:16.766Z,16.64
2023-04-24T05:21:42.882Z,16.61
2023-04-24T05:24:09.034Z,16.64
2023-04-24T05:26:35.199Z,16.63
2023-04-24T05:29:01.322Z,16.61
2023-04-24T05:31:27.471Z,16.61
2023-04-24T05:33:53.649Z,16.61
2023-04-24T05:36:19.782Z,16.60
2023-04-24T05:38:45.888Z,16.60
2023-04-24T05:41:11.990Z,16.61
2023-04-24T05:43:38.091Z,16.59
2023-04-24T05:46:04.216Z,16.60
2023-04-24T05:48:30.325Z,16.57
2023-04-24T05:50:56.415Z,16.57
2023-04-24T05:53:22.534Z,16.57
2023-04-24T05:55:48.644Z,16.56
2023-04-24T05:58:14.744Z,16.56
2023-04-24T06:00:40.867Z,16.55
2023-04-24T06:03:07.180Z,16.54
2023-04-24T06:05:33.654Z,16.55
2023-04-24T06:07:59.793Z,16.55
2023-04-24T06:10:25.889Z,16.56
2023-04-24T06:12:52.006Z,16.55
2023-04-24T06:15:18.137Z,16.56
2023-04-24T06:17:44.337Z,16.55
2023-04-24T06:20:10.452Z,16.55
2023-04-24T06:22:37.074Z,16.55
2023-04-24T06:25:03.170Z,16.55
2023-04-24T06:27:29.277Z,16.56
2023-04-24T06:29:55.493Z,16.55
2023-04-24T06:32:21.686Z,16.56
2023-04-24T06:34:47.838Z,16.55
2023-04-24T06:37:13.989Z,16.55
2023-04-24T06:39:40.080Z,16.54
2023-04-24T06:42:06.175Z,16.54
2023-04-24T06:44:32.275Z,16.53
2023-04-24T06:46:58.369Z,16.54
2023-04-24T06:49:24.499Z,16.53
2023-04-24T06:51:50.650Z,16.53
2023-04-24T06:54:16.760Z,16.52
2023-04-24T06:56:42.858Z,16.53
2023-04-24T06:59:08.971Z,16.53
2023-04-24T07:01:35.113Z,16.52
2023-04-24T07:04:01.437Z,16.51
2023-04-24T07:06:28.208Z,16.51
2023-04-24T07:08:54.322Z,16.51
2023-04-24T07:11:20.458Z,16.51
2023-04-24T07:13:46.567Z,16.50
2023-04-24T07:16:12.668Z,16.51
2023-04-24T07:18:41.124Z,16.50
2023-04-24T07:21:07.249Z,16.50
2023-04-24T07:23:33.354Z,16.50
2023-04-24T07:25:59.460Z,16.51
2023-04-24T07:28:25.591Z,16.49
2023-04-24T07:30:51.689Z,16.50
2023-04-24T07:33:17.826Z,16.50
2023-04-24T07:35:43.984Z,16.49
2023-04-24T07:38:10.098Z,16.49
2023-04-24T07:40:36.202Z,16.48
2023-04-24T07:43:02.352Z,16.48
2023-04-24T07:45:28.456Z,16.49
2023-04-24T07:47:54.581Z,16.49
2023-04-24T07:50:20.702Z,16.48
2023-04-24T07:52:46.786Z,16.48
2023-04-24T07:55:12.894Z,16.47
2023-04-24T07:57:39.021Z,16.47
2023-04-24T08:00:05.111Z,16.48
2023-04-24T08:02:31.345Z,16.48
2023-04-24T08:04:59.420Z,16.46
2023-04-24T08:07:26.374Z,16.46
2023-04-24T08:09:52.519Z,16.46
2023-04-24T08:12:18.658Z,16.46
2023-04-24T08:14:44.967Z,16.44
2023-04-24T08:17:11.163Z,16.44
2023-04-24T08:19:37.338Z,16.45
2023-04-24T08:22:03.425Z,16.43
2023-04-24T08:24:29.528Z,16.44
2023-04-24T08:26:56.157Z,16.42
2023-04-24T08:29:22.240Z,16.42
2023-04-24T08:31:48.407Z,16.41
2023-04-24T08:34:14.548Z,16.40
2023-04-24T08:36:47.002Z,16.39
2023-04-24T08:39:13.737Z,16.39
2023-04-24T08:41:39.906Z,16.40
2023-04-24T08:44:06.026Z,16.39
2023-04-24T08:46:32.301Z,16.37
2023-04-24T08:48:58.505Z,16.37
2023-04-24T08:51:24.610Z,16.37
2023-04-24T08:53:50.720Z,16.37
2023-04-24T08:56:16.870Z,16.37
2023-04-24T08:58:42.987Z,16.38
2023-04-24T09:01:09.138Z,16.36
2023-04-24T09:03:35.426Z,16.36
2023-04-24T09:06:01.829Z,16.36
2023-04-24T09:08:27.971Z,16.35
2023-04-24T09:10:54.105Z,16.35
2023-04-24T09:13:20.190Z,16.35
2023-04-24T09:15:46.293Z,16.35
2023-04-24T09:18:12.411Z,16.35
2023-04-24T09:20:38.523Z,16.34
2023-04-24T09:23:04.623Z,16.34
2023-04-24T09:25:30.746Z,16.35
2023-04-24T09:27:56.852Z,16.34
2023-04-24T09:30:22.930Z,16.34
2023-04-24T09:32:49.583Z,16.33
2023-04-24T09:35:15.732Z,16.32
2023-04-24T09:37:41.834Z,16.32
2023-04-24T09:40:07.960Z,16.33
2023-04-24T09:42:34.072Z,16.33
2023-04-24T09:45:12.118Z,16.33
2023-04-24T09:47:41.153Z,16.32
2023-04-24T09:50:07.330Z,16.32
2023-04-24T09:52:33.441Z,16.31
2023-04-24T09:54:59.667Z,16.30
2023-04-24T09:57:25.794Z,16.30
2023-04-24T09:59:51.890Z,16.30
2023-04-24T10:02:18.052Z,16.29
2023-04-24T10:04:44.218Z,16.29
2023-04-24T10:07:10.319Z,16.29
2023-04-24T10:09:36.730Z,16.28
2023-04-24T10:12:02.839Z,16.28
2023-04-24T10:14:29.004Z,16.27
2023-04-24T10:16:55.155Z,16.27
2023-04-24T10:19:21.368Z,16.28
2023-04-24T10:21:47.650Z,16.26
2023-04-24T10:24:13.808Z,16.25
2023-04-24T10:26:39.895Z,16.25
2023-04-24T10:29:05.982Z,16.24
2023-04-24T10:31:32.152Z,16.24
2023-04-24T10:33:58.330Z,16.23
2023-04-24T10:36:24.442Z,16.23
2023-04-24T10:38:50.600Z,16.22
2023-04-24T10:41:16.706Z,16.21
2023-04-24T10:43:42.816Z,16.22
2023-04-24T10:46:09.366Z,16.21
2023-04-24T10:48:35.488Z,16.21
2023-04-24T10:51:01.578Z,16.19
2023-04-24T10:53:27.719Z,16.19
2023-04-24T10:55:53.846Z,16.19
2023-04-24T10:58:19.940Z,16.18
2023-04-24T11:00:46.108Z,16.18
2023-04-24T11:03:12.380Z,16.17
2023-04-24T11:05:38.613Z,16.16
2023-04-24T11:08:07.265Z,16.15
2023-04-24T11:10:33.496Z,16.17
2023-04-24T11:12:59.595Z,16.16
2023-04-24T11:15:25.720Z,16.13
2023-04-24T11:17:51.900Z,16.15
2023-04-24T11:20:27.634Z,16.15
2023-04-24T11:22:54.622Z,16.15
2023-04-24T11:25:20.716Z,16.15
2023-04-24T11:27:46.823Z,16.14
2023-04-24T11:30:12.987Z,16.13
2023-04-24T11:32:39.185Z,16.13
2023-04-24T11:35:05.305Z,16.12
2023-04-24T11:37:31.476Z,16.14
2023-04-24T11:39:57.801Z,16.13
2023-04-24T11:42:24.130Z,16.13
2023-04-24T11:44:50.428Z,16.13
2023-04-24T11:47:16.515Z,16.12
2023-04-24T11:49:42.632Z,16.12
2023-04-24T11:52:08.781Z,16.11
2023-04-24T11:54:34.875Z,16.12
2023-04-24T11:57:00.976Z,16.12
2023-04-24T11:59:27.224Z,16.12
2023-04-24T12:01:53.318Z,16.11
2023-04-24T12:04:19.520Z,16.11
2023-04-24T12:06:45.886Z,16.10
2023-04-24T12:09:18.217Z,16.12
2023-04-24T12:11:44.824Z,16.10
2023-04-24T12:14:11.010Z,16.11
2023-04-24T12:16:37.176Z,16.10
2023-04-24T12:19:03.337Z,16.10
2023-04-24T12:21:29.452Z,16.11
2023-04-24T12:23:55.546Z,16.11
2023-04-24T12:26:21.652Z,16.10
2023-04-24T12:28:47.770Z,16.09
2023-04-24T12:31:13.909Z,16.09
2023-04-24T12:33:40.178Z,16.08
2023-04-24T12:36:06.391Z,16.07
2023-04-24T12:38:32.507Z,16.08
2023-04-24T12:40:58.600Z,16.07
2023-04-24T12:43:24.801Z,16.08
2023-04-24T12:45:50.922Z,16.06
2023-04-24T12:48:17.084Z,16.06
2023-04-24T12:50:45.699Z,16.05
2023-04-24T12:53:12.776Z,16.06
2023-04-24T12:55:38.928Z,16.05
2023-04-24T12:58:05.059Z,16.05
2023-04-24T13:00:31.223Z,16.03
2023-04-24T13:02:57.422Z,16.04
2023-04-24T13:05:25.235Z,16.05
2023-04-24T13:07:51.661Z,16.05
2023-04-24T13:10:17.777Z,16.04
2023-04-24T13:12:43.905Z,16.05
2023-04-24T13:15:10.199Z,16.06
2023-04-24T13:17:36.360Z,16.05
2023-04-24T13:20:02.521Z,16.05
2023-04-24T13:22:28.618Z,16.03
2023-04-24T13:24:54.750Z,16.02
2023-04-24T13:27:20.881Z,16.02
2023-04-24T13:29:46.977Z,16.03
2023-04-24T13:32:13.106Z,16.02
2023-04-24T13:34:39.249Z,16.01
2023-04-24T13:37:05.414Z,16.02
2023-04-24T13:39:31.693Z,16.01
2023-04-24T13:41:57.881Z,16.00
2023-04-24T13:44:23.980Z,15.99
2023-04-24T13:46:50.097Z,16.00
2023-04-24T13:49:16.225Z,15.99
2023-04-24T13:51:42.330Z,15.97
2023-04-24T13:54:08.431Z,15.97
2023-04-24T13:56:34.537Z,15.96
2023-04-24T13:59:00.623Z,15.97
2023-04-24T14:01:26.880Z,15.97
2023-04-24T14:03:53.172Z,15.97
2023-04-24T14:06:19.455Z,15.96
2023-04-24T14:08:45.563Z,15.98
2023-04-24T14:11:11.678Z,15.96
2023-04-24T14:13:37.793Z,15.96
2023-04-24T14:16:03.892Z,15.96
2023-04-24T14:18:30.073Z,15.96
2023-04-24T14:20:56.160Z,15.96
2023-04-24T14:23:22.268Z,15.96
2023-04-24T14:25:48.392Z,15.96
2023-04-24T14:28:14.498Z,15.96
2023-04-24T14:30:40.599Z,15.96
2023-04-24T14:33:06.773Z,15.94
2023-04-24T14:35:32.895Z,15.93
2023-04-24T14:37:59.025Z,15.93
2023-04-24T14:40:48.416Z,15.94
2023-04-24T14:43:11.214Z,15.94
2023-04-24T14:45:37.832Z,15.92
2023-04-24T14:48:03.985Z,15.94
2023-04-24T14:50:30.167Z,15.93
2023-04-24T14:52:56.403Z,15.94
2023-04-24T14:55:22.516Z,15.93
2023-04-24T14:57:48.659Z,15.94
2023-04-24T15:00:14.777Z,15.93
2023-04-24T15:02:41.006Z,15.94
2023-04-24T15:05:07.421Z,15.92
2023-04-24T15:07:33.584Z,15.92
2023-04-24T15:09:59.751Z,15.93
2023-04-24T15:12:27.190Z,15.93
2023-04-24T15:14:53.295Z,15.92
2023-04-24T15:17:19.401Z,15.93
2023-04-24T15:19:45.524Z,15.92
2023-04-24T15:22:12.252Z,15.94
2023-04-24T15:24:38.358Z,15.92
2023-04-24T15:27:04.444Z,15.92
2023-04-24T15:29:30.555Z,15.91
2023-04-24T15:31:56.698Z,15.93
2023-04-24T15:34:22.805Z,15.93
2023-04-24T15:36:48.928Z,15.92
2023-04-24T15:39:15.041Z,15.92
2023-04-24T15:41:41.135Z,15.91
2023-04-24T15:44:07.269Z,15.90
2023-04-24T15:46:33.437Z,15.91
2023-04-24T15:48:59.585Z,15.91
2023-04-24T15:51:25.921Z,15.90
2023-04-24T15:53:52.028Z,15.91
2023-04-24T15:56:18.130Z,15.90
2023-04-24T15:58:44.250Z,15.89
2023-04-24T16:01:10.384Z,15.89
2023-04-24T16:03:36.659Z,15.89
2023-04-24T16:06:02.891Z,15.90
2023-04-24T16:08:28.989Z,15.89
2023-04-24T16:10:55.073Z,15.87
2023-04-24T16:13:21.199Z,15.87
2023-04-24T16:15:47.321Z,15.89
2023-04-24T16:18:13.487Z,15.90
2023-04-24T16:20:39.743Z,15.89
2023-04-24T16:23:05.860Z,15.89
2023-04-24T16:25:31.965Z,15.88
2023-04-24T16:27:58.078Z,15.89
2023-04-24T16:30:24.185Z,15.89
2023-04-24T16:32:50.373Z,15.88
2023-04-24T16:35:16.608Z,15.88
2023-04-24T16:37:42.693Z,15.87
2023-04-24T16:40:08.778Z,15.86
2023-04-24T16:42:34.892Z,15.84
2023-04-24T16:45:01.004Z,15.86
2023-04-24T16:47:27.131Z,15.87
2023-04-24T16:49:53.275Z,15.88
2023-04-24T16:52:19.354Z,15.88
2023-04-24T16:54:45.453Z,15.86
2023-04-24T16:57:12.089Z,15.86
2023-04-24T16:59:44.394Z,15.87
2023-04-24T17:02:10.528Z,15.86
2023-04-24T17:04:36.881Z,15.85
2023-04-24T17:07:03.069Z,15.82
2023-04-24T17:09:29.175Z,15.85
2023-04-24T17:11:55.305Z,15.86
2023-04-24T17:14:21.390Z,15.87
2023-04-24T17:16:47.544Z,15.88
2023-04-24T17:19:13.745Z,15.87
2023-04-24T17:21:39.945Z,15.87
2023-04-24T17:24:06.057Z,15.86
2023-04-24T17:26:32.243Z,15.85
2023-04-24T17:28:58.359Z,15.86
2023-04-24T17:31:24.506Z,15.86
2023-04-24T17:33:50.635Z,15.84
2023-04-24T17:36:16.718Z,15.83
2023-04-24T17:38:42.806Z,15.84
2023-04-24T17:41:08.919Z,15.84
2023-04-24T17:43:35.095Z,15.83
2023-04-24T17:46:01.244Z,15.84
2023-04-24T17:48:27.466Z,15.84
2023-04-24T17:50:53.624Z,15.84
2023-04-24T17:53:19.749Z,15.81
2023-04-24T17:55:45.916Z,15.82
2023-04-24T17:58:12.020Z,15.84
2023-04-24T18:00:38.128Z,15.83
2023-04-24T18:03:04.407Z,15.84
2023-04-24T18:05:30.569Z,15.84
2023-04-24T18:07:56.674Z,15.84
2023-04-24T18:10:23.016Z,15.84
2023-04-24T18:12:49.161Z,15.82
2023-04-24T18:15:15.312Z,15.80
2023-04-24T18:17:41.493Z,15.81
2023-04-24T18:20:07.632Z,15.81
2023-04-24T18:22:33.739Z,15.83
2023-04-24T18:24:59.843Z,15.81
2023-04-24T18:27:25.947Z,15.79
2023-04-24T18:29:52.038Z,15.80
2023-04-24T18:32:18.686Z,15.80
2023-04-24T18:34:44.811Z,15.77
2023-04-24T18:37:10.905Z,15.80
2023-04-24T18:39:37.032Z,15.80
2023-04-24T18:42:03.134Z,15.80
2023-04-24T18:44:29.228Z,15.80
2023-04-24T18:46:55.387Z,15.81
2023-04-24T18:49:21.527Z,15.81
2023-04-24T18:51:53.645Z,15.81
2023-04-24T18:54:20.779Z,15.81
2023-04-24T18:56:46.869Z,15.82
2023-04-24T18:59:12.958Z,15.79
2023-04-24T19:01:39.710Z,15.81
2023-04-24T19:04:05.866Z,15.81
2023-04-24T19:06:31.984Z,15.81
2023-04-24T19:08:58.093Z,15.82
2023-04-24T19:11:24.187Z,15.83
2023-04-24T19:13:50.283Z,15.83
2023-04-24T19:16:16.447Z,15.83
2023-04-24T19:18:42.554Z,15.83
2023-04-24T19:21:08.646Z,15.83
2023-04-24T19:23:34.756Z,15.83
2023-04-24T19:26:00.851Z,15.83
2023-04-24T19:28:26.938Z,15.83
2023-04-24T19:30:53.061Z,15.82
2023-04-24T19:33:19.161Z,15.82
2023-04-24T19:35:45.260Z,15.83
2023-04-24T19:38:11.365Z,15.82
2023-04-24T19:40:37.459Z,15.82
2023-04-24T19:43:03.564Z,15.82
2023-04-24T19:45:29.687Z,15.83
2023-04-24T19:47:55.855Z,15.81
2023-04-24T19:50:21.993Z,15.81
2023-04-24T19:52:48.120Z,15.80
2023-04-24T19:55:14.214Z,15.81
2023-04-24T19:57:40.308Z,15.80
2023-04-24T20:00:06.469Z,15.81
2023-04-24T20:02:32.665Z,15.80
2023-04-24T20:04:58.897Z,15.81
2023-04-24T20:07:25.097Z,15.79
2023-04-24T20:09:51.222Z,15.80
2023-04-24T20:12:17.341Z,15.79
2023-04-24T20:14:43.474Z,15.79
2023-04-24T20:17:09.578Z,15.80
2023-04-24T20:19:35.676Z,15.79
2023-04-24T20:22:01.859Z,15.77
2023-04-24T20:24:27.955Z,15.79
2023-04-24T20:26:54.045Z,15.79
2023-04-24T20:29:20.154Z,15.77
2023-04-24T20:31:46.296Z,15.77
2023-04-24T20:34:12.410Z,15.76
2023-04-24T20:36:38.538Z,15.77
2023-04-24T20:39:04.639Z,15.77
2023-04-24T20:41:30.756Z,15.76
2023-04-24T20:43:56.868Z,15.76
2023-04-24T20:46:23.003Z,15.76
2023-04-24T20:48:49.372Z,15.76
2023-04-24T20:51:15.705Z,15.76
2023-04-24T20:53:41.790Z,15.76
2023-04-24T20:56:07.902Z,15.75
2023-04-24T20:58:34.118Z,15.75
2023-04-24T21:01:00.490Z,15.74
2023-04-24T21:03:26.748Z,15.74
2023-04-24T21:05:53.067Z,15.74
2023-04-24T21:08:19.180Z,15.73
2023-04-24T21:10:45.277Z,15.72
2023-04-24T21:13:11.392Z,15.73
2023-04-24T21:15:37.496Z,15.74
2023-04-24T21:18:03.696Z,15.73
2023-04-24T21:20:29.826Z,15.74
2023-04-24T21:22:55.928Z,15.72
2023-04-24T21:25:22.024Z,15.72
2023-04-24T21:27:48.177Z,15.73
2023-04-24T21:30:14.281Z,15.72
2023-04-24T21:32:40.578Z,15.71
2023-04-24T21:35:06.874Z,15.71
2023-04-24T21:37:32.960Z,15.71
2023-04-24T21:39:59.053Z,15.70
2023-04-24T21:42:25.257Z,15.70
2023-04-24T21:44:51.359Z,15.71
2023-04-24T21:47:17.467Z,15.70
2023-04-24T21:49:43.564Z,15.70
2023-04-24T21:52:09.652Z,15.68
2023-04-24T21:54:35.757Z,15.69
2023-04-24T21:57:01.878Z,15.69
2023-04-24T21:59:27.966Z,15.68
2023-04-24T22:01:54.070Z,15.69
2023-04-24T22:04:20.448Z,15.68
2023-04-24T22:06:46.935Z,15.67
2023-04-24T22:09:13.056Z,15.68
2023-04-24T22:11:39.204Z,15.67
2023-04-24T22:14:05.319Z,15.67
2023-04-24T22:16:31.508Z,15.67
2023-04-24T22:18:57.658Z,15.67
2023-04-24T22:21:23.773Z,15.68
2023-04-24T22:23:50.187Z,15.68
2023-04-24T22:26:16.578Z,15.68
2023-04-24T22:28:42.690Z,15.67
2023-04-24T22:31:08.807Z,15.67
2023-04-24T22:33:34.930Z,15.68
2023-04-24T22:36:01.022Z,15.66
2023-04-24T22:38:27.115Z,15.66
2023-04-24T22:40:53.225Z,15.67
2023-04-24T22:43:19.336Z,15.66
2023-04-24T22:45:45.470Z,15.67
2023-04-24T22:48:11.587Z,15.66
2023-04-24T22:50:37.683Z,15.66
2023-04-24T22:53:03.824Z,15.66
2023-04-24T22:55:29.959Z,15.66
2023-04-24T22:57:56.069Z,15.65
2023-04-24T23:00:22.167Z,15.65
2023-04-24T23:02:48.425Z,15.65
2023-04-24T23:05:14.583Z,15.64
2023-04-24T23:07:40.676Z,15.65
2023-04-24T23:10:06.795Z,15.63
2023-04-24T23:12:32.877Z,15.64
2023-04-24T23:14:58.980Z,15.63
2023-04-24T23:17:25.108Z,15.63
2023-04-24T23:19:51.254Z,15.62
2023-04-24T23:22:17.365Z,15.62
2023-04-24T23:24:43.496Z,15.61
2023-04-24T23:27:09.582Z,15.61
2023-04-24T23:29:35.673Z,15.61
2023-04-24T23:32:01.928Z,15.61
2023-04-24T23:34:28.166Z,15.62
2023-04-24T23:36:54.279Z,15.60
2023-04-24T23:39:20.424Z,15.60
2023-04-24T23:41:46.540Z,15.60
2023-04-24T23:44:12.652Z,15.59
2023-04-24T23:46:38.782Z,15.59
2023-04-24T23:49:04.870Z,15.58
2023-04-24T23:51:31.034Z,15.57
2023-04-24T23:53:57.164Z,15.58
2023-04-24T23:56:23.265Z,15.58
2023-04-24T23:58:49.358Z,15.57
